Time;durP1;ratioP1;P1;durP2;ratioP2;P2;SDS_P1;SDS_P2;PMS_P1;PMS_P2;Temp;Humidity;BMP_temperature;BMP_pressure;BME280_temperature;BME280_humidity;BME280_pressure;Samples;Min_cycle;Max_cycle;Signal;HPM_P1;HPM_P2
2023/04/17 00:01:44;;;;;;;10.00;3.55;;;25.70;99.90;;;;;;4990892;28;20046;-49
2023/04/17 00:04:11;;;;;;;7.80;3.50;;;25.70;99.90;;;;;;4991955;28;20121;-50
2023/04/17 00:06:37;;;;;;;;;;;25.70;99.90;;;;;;4991510;28;20028;-50
2023/04/17 00:09:03;;;;;;;8.27;3.47;;;25.70;99.90;;;;;;4992231;28;19906;-50
2023/04/17 00:11:29;;;;;;;7.60;3.50;;;25.70;99.90;;;;;;4992503;28;20053;-50
2023/04/17 00:13:55;;;;;;;8.70;3.25;;;25.70;99.90;;;;;;4991621;28;20372;-49
2023/04/17 00:16:21;;;;;;;8.05;2.92;;;25.70;99.90;;;;;;4991725;28;20096;-50
2023/04/17 00:18:46;;;;;;;12.00;3.15;;;25.60;99.90;;;;;;4991940;28;20072;-51
2023/04/17 00:21:13;;;;;;;6.15;3.22;;;25.60;99.90;;;;;;4989669;28;20066;-50
2023/04/17 00:23:38;;;;;;;10.80;3.00;;;25.70;99.90;;;;;;4991958;28;20054;-50
2023/04/17 00:26:04;;;;;;;8.85;3.58;;;25.60;99.90;;;;;;4990372;28;20436;-52
2023/04/17 00:28:31;;;;;;;9.38;3.70;;;25.60;99.90;;;;;;4992036;28;20183;-51
2023/04/17 00:30:57;;;;;;;7.93;2.70;;;25.60;99.90;;;;;;4991696;28;20033;-51
2023/04/17 00:33:23;;;;;;;7.82;3.15;;;25.60;99.90;;;;;;4991920;28;20493;-53
2023/04/17 00:35:49;;;;;;;9.23;3.20;;;25.60;99.90;;;;;;4990047;28;20076;-51
2023/04/17 00:38:15;;;;;;;9.77;3.95;;;25.60;99.90;;;;;;4991635;28;20156;-49
2023/04/17 00:40:41;;;;;;;9.43;3.63;;;25.60;99.90;;;;;;4991907;28;20101;-49
2023/04/17 00:43:07;;;;;;;9.48;3.97;;;25.60;99.90;;;;;;4989668;28;20034;-51
2023/04/17 00:45:34;;;;;;;9.13;3.50;;;25.60;99.90;;;;;;4991543;28;20045;-50
2023/04/17 00:48:01;;;;;;;12.02;3.75;;;25.60;99.90;;;;;;4991507;28;20071;-51
2023/04/17 00:50:28;;;;;;;7.13;3.35;;;25.60;99.90;;;;;;4985525;28;20041;-49
2023/04/17 00:52:54;;;;;;;8.70;3.72;;;25.60;99.90;;;;;;4991014;28;20030;-51
2023/04/17 00:55:20;;;;;;;7.93;3.22;;;25.60;99.90;;;;;;4990853;28;20026;-50
2023/04/17 00:57:49;;;;;;;7.85;3.58;;;25.60;99.90;;;;;;4989944;28;20412;-51
2023/04/17 01:00:16;;;;;;;7.72;3.42;;;25.50;99.90;;;;;;4991586;28;20042;-50
2023/04/17 01:02:43;;;;;;;11.48;3.20;;;25.60;99.90;;;;;;4993133;28;20037;-51
2023/04/17 01:05:09;;;;;;;8.27;3.30;;;25.50;99.90;;;;;;4990872;28;20034;-50
2023/04/17 01:07:36;;;;;;;8.48;3.47;;;25.50;99.90;;;;;;4992036;28;20045;-51
2023/04/17 01:10:02;;;;;;;8.17;3.90;;;25.50;99.90;;;;;;4993564;28;20573;-49
2023/04/17 01:12:28;;;;;;;8.55;3.60;;;25.50;99.90;;;;;;4991349;28;20014;-51
2023/04/17 01:14:55;;;;;;;9.75;3.45;;;25.50;99.90;;;;;;4992754;28;20080;-51
2023/04/17 01:17:22;;;;;;;11.38;5.05;;;25.50;99.90;;;;;;4993192;28;20053;-50
2023/04/17 01:19:49;;;;;;;8.88;3.55;;;25.50;99.90;;;;;;4993114;28;20034;-51
2023/04/17 01:22:15;;;;;;;11.30;3.92;;;25.50;99.90;;;;;;4991186;28;20034;-51
2023/04/17 01:24:41;;;;;;;6.60;3.30;;;25.50;99.90;;;;;;4993124;28;20057;-52
2023/04/17 01:27:07;;;;;;;11.07;3.65;;;25.50;99.90;;;;;;4992811;28;20503;-51
2023/04/17 01:29:33;;;;;;;7.20;2.83;;;25.50;99.90;;;;;;4993314;28;20032;-50
2023/04/17 01:31:59;;;;;;;6.75;3.65;;;25.50;99.90;;;;;;4992907;28;20042;-50
2023/04/17 01:34:25;;;;;;;8.30;3.05;;;25.50;99.90;;;;;;4992903;28;20590;-50
2023/04/17 01:36:51;;;;;;;6.32;2.97;;;25.50;99.90;;;;;;4992757;28;20500;-51
2023/04/17 01:39:17;;;;;;;11.25;3.78;;;25.40;99.90;;;;;;4992906;28;20370;-50
2023/04/17 01:41:43;;;;;;;7.68;3.35;;;25.40;99.90;;;;;;4992958;28;20392;-50
2023/04/17 01:44:09;;;;;;;8.43;3.95;;;25.40;99.90;;;;;;4992726;28;20014;-51
2023/04/17 01:46:35;;;;;;;9.02;2.95;;;25.40;99.90;;;;;;4993079;28;20041;-50
2023/04/17 01:49:01;;;;;;;6.45;3.15;;;25.40;99.90;;;;;;4992664;28;20026;-51
2023/04/17 01:51:26;;;;;;;7.68;3.53;;;25.40;99.90;;;;;;4992838;28;20113;-50
2023/04/17 01:53:53;;;;;;;6.30;2.88;;;25.40;99.90;;;;;;4992680;28;20552;-55
2023/04/17 01:56:18;;;;;;;6.28;3.20;;;25.40;99.90;;;;;;4992537;28;20042;-51
2023/04/17 01:58:44;;;;;;;6.75;3.00;;;25.40;99.90;;;;;;4992412;28;20120;-51
2023/04/17 02:01:10;;;;;;;9.05;4.13;;;25.40;99.90;;;;;;4993022;28;20046;-51
2023/04/17 02:03:36;;;;;;;9.80;3.90;;;25.40;99.90;;;;;;4992874;28;20133;-49
2023/04/17 02:06:02;;;;;;;9.50;3.30;;;25.40;99.90;;;;;;4992736;28;20096;-48
2023/04/17 02:08:28;;;;;;;8.10;3.45;;;25.40;99.90;;;;;;4992559;28;20369;-49
2023/04/17 02:10:54;;;;;;;8.88;3.80;;;25.40;99.90;;;;;;4992373;28;20022;-49
2023/04/17 02:13:20;;;;;;;9.80;3.50;;;25.30;99.90;;;;;;4992468;28;20491;-49
2023/04/17 02:15:46;;;;;;;7.25;3.20;;;25.30;99.90;;;;;;4992390;28;20038;-49
2023/04/17 02:18:11;;;;;;;5.78;3.05;;;25.30;99.90;;;;;;4992644;28;20472;-49
2023/04/17 02:20:38;;;;;;;8.02;2.90;;;25.30;99.90;;;;;;4992469;28;20034;-49
2023/04/17 02:23:05;;;;;;;7.07;2.90;;;25.30;99.90;;;;;;4992664;28;20477;-50
2023/04/17 02:25:31;;;;;;;7.72;4.00;;;25.30;99.90;;;;;;4992123;28;20086;-49
2023/04/17 02:27:57;;;;;;;6.05;2.60;;;25.30;99.90;;;;;;4992451;28;20042;-49
2023/04/17 02:30:23;;;;;;;6.95;3.67;;;25.30;99.90;;;;;;4991074;28;20113;-49
2023/04/17 02:32:50;;;;;;;6.15;3.25;;;25.30;99.90;;;;;;4994583;28;20027;-51
2023/04/17 02:35:17;;;;;;;8.25;3.72;;;25.30;99.90;;;;;;4996014;28;20045;-55
2023/04/17 02:37:43;;;;;;;7.07;3.13;;;25.30;99.90;;;;;;4982154;28;20038;-50
2023/04/17 02:40:09;;;;;;;7.45;3.70;;;25.20;99.90;;;;;;4996432;28;20019;-52
2023/04/17 02:42:35;;;;;;;8.55;3.95;;;25.20;99.90;;;;;;5009036;28;20148;-50
2023/04/17 02:45:01;;;;;;;8.45;3.63;;;25.20;99.90;;;;;;4996049;28;20061;-51
2023/04/17 02:47:27;;;;;;;8.55;3.88;;;25.20;99.90;;;;;;4994771;28;20433;-51
2023/04/17 02:49:54;;;;;;;7.50;4.13;;;25.20;99.90;;;;;;4996087;28;20101;-51
2023/04/17 02:52:20;;;;;;;8.15;4.00;;;25.20;99.90;;;;;;4995706;28;20030;-51
2023/04/17 02:54:45;;;;;;;6.95;3.55;;;25.20;99.90;;;;;;4995965;28;20081;-51
2023/04/17 02:57:11;;;;;;;7.15;3.75;;;25.20;99.90;;;;;;4994480;28;20081;-52
2023/04/17 02:59:37;;;;;;;7.65;3.78;;;25.20;99.90;;;;;;4996528;28;20031;-51
2023/04/17 03:02:04;;;;;;;6.03;3.80;;;25.20;99.90;;;;;;5008441;28;20121;-50
2023/04/17 03:04:29;;;;;;;8.10;3.53;;;25.10;99.90;;;;;;4995713;28;20489;-50
2023/04/17 03:06:56;;;;;;;12.80;4.13;;;25.10;99.90;;;;;;4995669;28;20101;-50
2023/04/17 03:09:22;;;;;;;7.88;3.90;;;25.10;99.90;;;;;;4994267;28;20384;-49
2023/04/17 03:11:48;;;;;;;6.60;3.83;;;25.10;99.90;;;;;;4995600;28;20439;-50
2023/04/17 03:14:14;;;;;;;9.90;4.28;;;25.10;99.90;;;;;;4994147;28;20062;-50
2023/04/17 03:16:40;;;;;;;9.77;4.40;;;25.10;99.90;;;;;;4995536;28;20038;-50
2023/04/17 03:19:06;;;;;;;5.97;3.83;;;25.10;99.90;;;;;;4995616;28;20018;-51
2023/04/17 03:21:32;;;;;;;8.10;4.40;;;25.10;99.90;;;;;;4995175;28;20026;-49
2023/04/17 03:23:57;;;;;;;8.20;4.13;;;25.10;99.90;;;;;;4995237;28;20022;-50
2023/04/17 03:26:23;;;;;;;7.30;4.00;;;25.10;99.90;;;;;;4995274;28;20154;-49
2023/04/17 03:28:49;;;;;;;8.57;3.35;;;25.00;99.90;;;;;;4995172;28;20050;-50
2023/04/17 03:31:15;;;;;;;7.35;4.05;;;25.00;99.90;;;;;;4995314;28;20031;-50
2023/04/17 03:33:40;;;;;;;7.80;4.10;;;25.00;99.90;;;;;;4995430;28;20027;-50
2023/04/17 03:36:06;;;;;;;7.97;4.05;;;25.00;99.90;;;;;;4993716;28;20392;-50
2023/04/17 03:38:33;;;;;;;7.25;4.28;;;25.00;99.90;;;;;;4995048;28;20046;-50
2023/04/17 03:40:59;;;;;;;6.85;4.20;;;25.00;99.90;;;;;;4995223;28;20446;-50
2023/04/17 03:43:25;;;;;;;9.05;4.68;;;25.00;99.90;;;;;;4994799;28;20030;-50
2023/04/17 03:45:51;;;;;;;9.20;4.50;;;25.00;99.90;;;;;;4994758;28;20034;-50
2023/04/17 03:48:16;;;;;;;9.82;4.43;;;25.00;99.90;;;;;;4995418;28;20349;-50
2023/04/17 03:50:42;;;;;;;9.38;4.32;;;25.00;99.90;;;;;;4994894;28;20113;-49
2023/04/17 03:53:08;;;;;;;10.32;5.10;;;25.00;99.90;;;;;;4994924;28;20473;-49
2023/04/17 03:55:34;;;;;;;6.93;3.70;;;25.00;99.90;;;;;;4994540;28;20045;-49
2023/04/17 03:58:00;;;;;;;7.97;4.63;;;24.90;99.90;;;;;;4994795;28;20014;-49
2023/04/17 04:00:27;;;;;;;11.35;4.53;;;24.90;99.90;;;;;;5025890;23;20043;-45
2023/04/17 04:02:53;;;;;;;6.70;3.95;;;24.90;99.90;;;;;;4993468;28;20062;-45
2023/04/17 04:05:19;;;;;;;6.32;3.95;;;24.90;99.90;;;;;;4994521;28;20058;-46
2023/04/17 04:07:44;;;;;;;10.93;4.82;;;24.90;99.90;;;;;;4994763;28;20519;-45
2023/04/17 04:10:10;;;;;;;7.18;4.38;;;24.90;99.90;;;;;;4993415;28;20499;-45
2023/04/17 04:12:36;;;;;;;7.97;4.68;;;24.90;99.90;;;;;;4994436;28;20091;-45
2023/04/17 04:15:02;;;;;;;6.22;4.00;;;24.90;99.90;;;;;;4994441;28;20050;-45
2023/04/17 04:17:28;;;;;;;11.18;4.50;;;24.90;99.90;;;;;;4994449;28;20455;-45
2023/04/17 04:19:53;;;;;;;5.97;3.75;;;24.80;99.90;;;;;;4994368;28;20015;-45
2023/04/17 04:22:20;;;;;;;8.18;4.47;;;24.90;99.90;;;;;;4992861;28;20028;-50
2023/04/17 04:24:46;;;;;;;7.15;4.18;;;24.80;99.90;;;;;;4994401;28;20033;-45
2023/04/17 04:27:12;;;;;;;8.35;4.53;;;24.80;99.90;;;;;;4994282;28;20027;-45
2023/04/17 04:29:38;;;;;;;9.60;4.13;;;24.80;99.90;;;;;;4994255;28;20077;-46
2023/04/17 04:32:04;;;;;;;6.75;3.80;;;24.80;99.90;;;;;;4993974;28;20026;-46
2023/04/17 04:34:29;;;;;;;8.30;4.13;;;24.80;99.90;;;;;;4994524;28;20065;-45
2023/04/17 04:36:56;;;;;;;7.55;4.60;;;24.80;99.90;;;;;;4994109;28;20038;-46
2023/04/17 04:39:22;;;;;;;6.07;3.78;;;24.80;99.90;;;;;;4993798;28;20023;-46
2023/04/17 04:41:51;;;;;;;10.45;4.43;;;24.80;99.90;;;;;;4993971;28;20052;-45
2023/04/17 04:44:18;;;;;;;11.15;4.28;;;24.80;99.90;;;;;;4993814;28;20113;-45
2023/04/17 04:46:44;;;;;;;9.07;4.28;;;24.70;99.90;;;;;;4994071;28;20025;-45
2023/04/17 04:49:11;;;;;;;6.35;3.78;;;24.70;99.90;;;;;;4993558;28;20023;-46
2023/04/17 04:51:38;;;;;;;6.90;3.65;;;24.70;99.90;;;;;;4993932;28;20029;-45
2023/04/17 04:54:04;;;;;;;7.43;3.58;;;24.70;99.90;;;;;;4992586;28;20109;-46
2023/04/17 04:56:30;;;;;;;7.93;3.47;;;24.70;99.90;;;;;;4991431;28;20089;-45
2023/04/17 04:58:56;;;;;;;10.05;4.00;;;24.70;99.90;;;;;;4993438;28;20022;-46
2023/04/17 05:01:22;;;;;;;7.18;3.25;;;24.70;99.90;;;;;;4993483;28;20054;-45
2023/04/17 05:03:49;;;;;;;8.45;3.65;;;24.70;99.90;;;;;;4993341;28;20065;-45
2023/04/17 05:06:14;;;;;;;6.93;3.45;;;24.70;99.90;;;;;;4993753;28;20543;-47
2023/04/17 05:08:40;;;;;;;6.95;3.10;;;24.70;99.90;;;;;;4993372;28;20105;-45
2023/04/17 05:11:06;;;;;;;6.38;3.20;;;24.70;99.90;;;;;;4993348;28;20101;-45
2023/04/17 05:13:32;;;;;;;7.05;3.60;;;24.70;99.90;;;;;;5006333;28;20057;-46
2023/04/17 05:15:58;;;;;;;9.93;3.65;;;24.70;99.90;;;;;;4980353;28;20093;-45
2023/04/17 05:18:24;;;;;;;8.27;4.45;;;24.60;99.90;;;;;;4993345;28;20023;-45
2023/04/17 05:20:50;;;;;;;7.68;3.13;;;24.60;99.90;;;;;;4993171;28;20076;-45
2023/04/17 05:23:19;;;;;;;6.28;3.33;;;24.60;99.90;;;;;;4993355;28;20027;-45
2023/04/17 05:25:45;;;;;;;8.65;3.13;;;24.60;99.90;;;;;;4993362;28;20019;-45
2023/04/17 05:28:11;;;;;;;6.93;3.33;;;24.60;99.90;;;;;;4993095;28;20022;-45
2023/04/17 05:30:37;;;;;;;8.52;3.33;;;24.60;99.90;;;;;;4992963;28;20018;-46
2023/04/17 05:33:03;;;;;;;6.90;3.08;;;24.60;99.90;;;;;;4993098;28;20037;-45
2023/04/17 05:35:28;;;;;;;5.82;2.75;;;24.60;99.90;;;;;;4992761;28;20094;-46
2023/04/17 05:37:55;;;;;;;4.38;2.72;;;24.60;99.90;;;;;;4993155;28;20468;-45
2023/04/17 05:40:21;;;;;;;8.50;3.08;;;24.60;99.90;;;;;;4992882;28;20476;-45
2023/04/17 05:42:46;;;;;;;8.45;2.90;;;24.60;99.90;;;;;;4993084;28;20034;-45
2023/04/17 05:45:16;;;;;;;7.25;3.08;;;24.60;99.90;;;;;;4992692;28;20034;-45
2023/04/17 05:47:43;;;;;;;10.95;3.65;;;24.60;99.90;;;;;;4992894;28;20026;-46
2023/04/17 05:50:09;;;;;;;7.57;2.80;;;24.60;99.90;;;;;;4992664;28;20022;-45
2023/04/17 05:52:35;;;;;;;5.93;2.80;;;24.60;99.90;;;;;;4992812;28;20381;-46
2023/04/17 05:55:02;;;;;;;8.75;3.22;;;24.60;99.90;;;;;;4992654;28;20073;-46
2023/04/17 05:57:28;;;;;;;5.23;2.60;;;24.60;99.90;;;;;;4992699;28;20534;-46
2023/04/17 05:59:54;;;;;;;8.55;2.90;;;24.60;99.90;;;;;;4992561;28;20276;-46
2023/04/17 06:02:20;;;;;;;6.80;3.03;;;24.50;99.90;;;;;;4992625;28;20476;-46
2023/04/17 06:04:46;;;;;;;9.80;3.80;;;24.50;99.90;;;;;;4993014;28;20022;-45
2023/04/17 06:07:11;;;;;;;6.18;3.28;;;24.50;99.90;;;;;;4992171;28;20071;-47
2023/04/17 06:09:39;;;;;;;6.88;3.13;;;24.50;99.90;;;;;;4992694;28;20030;-46
2023/04/17 06:12:05;;;;;;;;;;;24.50;99.90;;;;;;4993016;28;20014;-46
2023/04/17 06:14:31;;;;;;;5.13;2.67;;;24.50;99.90;;;;;;4992545;28;19906;-45
2023/04/17 06:16:57;;;;;;;7.07;3.00;;;24.50;99.90;;;;;;4992438;28;20034;-46
2023/04/17 06:19:23;;;;;;;6.80;3.15;;;24.50;99.90;;;;;;4992655;28;20034;-46
2023/04/17 06:21:49;;;;;;;5.60;2.83;;;24.50;99.90;;;;;;4992885;28;20030;-45
2023/04/17 06:24:15;;;;;;;6.82;2.90;;;24.50;99.90;;;;;;4992408;28;20109;-45
2023/04/17 06:26:41;;;;;;;7.97;3.30;;;24.50;99.90;;;;;;4992395;28;20117;-45
2023/04/17 06:29:07;;;;;;;8.20;3.00;;;24.50;99.90;;;;;;4992220;28;20468;-45
2023/04/17 06:31:33;;;;;;;6.83;3.20;;;24.50;99.90;;;;;;4992579;28;20508;-46
2023/04/17 06:33:59;;;;;;;7.80;3.65;;;24.50;99.90;;;;;;4992351;28;20110;-46
2023/04/17 06:36:26;;;;;;;9.98;3.42;;;24.50;99.90;;;;;;4991009;28;20551;-46
2023/04/17 06:38:52;;;;;;;5.70;2.50;;;24.50;99.90;;;;;;4992177;28;20379;-46
2023/04/17 06:41:17;;;;;;;6.50;3.03;;;24.50;99.90;;;;;;4992454;28;20022;-45
2023/04/17 06:43:43;;;;;;;5.53;2.60;;;24.50;99.90;;;;;;4992288;28;20434;-46
2023/04/17 06:46:09;;;;;;;6.82;3.17;;;24.50;99.90;;;;;;4992054;28;20034;-46
2023/04/17 06:48:35;;;;;;;5.70;3.33;;;24.50;99.90;;;;;;4992233;28;20472;-46
2023/04/17 06:51:01;;;;;;;7.32;2.90;;;24.50;99.90;;;;;;4992027;28;20037;-46
2023/04/17 06:53:26;;;;;;;6.22;3.67;;;24.50;99.90;;;;;;4992104;28;20014;-46
2023/04/17 06:55:53;;;;;;;7.22;3.17;;;24.50;99.90;;;;;;4995061;28;20113;-46
2023/04/17 06:58:19;;;;;;;5.30;3.23;;;24.50;99.90;;;;;;5002346;28;20506;-45
2023/04/17 07:00:45;;;;;;;5.07;2.80;;;24.50;99.90;;;;;;4991838;28;20070;-46
2023/04/17 07:03:12;;;;;;;4.80;2.90;;;24.50;99.90;;;;;;4990624;28;20057;-46
2023/04/17 07:05:38;;;;;;;7.60;2.95;;;24.50;99.90;;;;;;4991980;28;20502;-45
2023/04/17 07:08:04;;;;;;;5.93;2.80;;;24.50;99.90;;;;;;4992038;28;20101;-45
2023/04/17 07:10:30;;;;;;;7.45;3.00;;;24.50;99.90;;;;;;4991990;28;20080;-45
2023/04/17 07:12:56;;;;;;;5.65;2.30;;;24.60;99.90;;;;;;4992002;28;20494;-45
2023/04/17 07:15:22;;;;;;;5.43;2.65;;;24.50;99.90;;;;;;4992273;28;20107;-45
2023/04/17 07:17:47;;;;;;;7.75;3.15;;;24.50;99.90;;;;;;4990477;28;20105;-45
2023/04/17 07:20:13;;;;;;;5.93;2.85;;;24.50;99.90;;;;;;4994654;28;20527;-46
2023/04/17 07:22:39;;;;;;;5.57;2.60;;;24.60;99.90;;;;;;4995239;28;20081;-46
2023/04/17 07:25:05;;;;;;;4.80;2.85;;;24.60;99.90;;;;;;4995401;28;20034;-45
2023/04/17 07:27:32;;;;;;;5.25;2.30;;;24.60;99.90;;;;;;4995335;28;20366;-45
2023/04/17 07:29:58;;;;;;;6.28;3.00;;;24.60;99.90;;;;;;4995473;28;20114;-45
2023/04/17 07:32:24;;;;;;;7.00;2.58;;;24.60;99.90;;;;;;4995279;28;20452;-45
2023/04/17 07:34:49;;;;;;;4.57;2.85;;;24.60;99.90;;;;;;4995331;28;20023;-46
2023/04/17 07:37:15;;;;;;;8.07;3.03;;;24.60;99.90;;;;;;4994967;28;20399;-45
2023/04/17 07:39:41;;;;;;;6.63;2.88;;;24.60;99.90;;;;;;4995003;28;20388;-45
2023/04/17 07:42:07;;;;;;;4.35;2.55;;;24.60;99.90;;;;;;4994965;28;20077;-46
2023/04/17 07:44:38;;;;;;;6.78;3.20;;;24.60;99.90;;;;;;4995061;28;20349;-46
2023/04/17 07:47:04;;;;;;;5.80;2.92;;;24.60;99.90;;;;;;4995021;28;20077;-46
2023/04/17 07:49:30;;;;;;;7.10;3.22;;;24.60;99.90;;;;;;4994915;28;20054;-46
2023/04/17 07:51:56;;;;;;;5.45;3.15;;;24.60;99.90;;;;;;4995002;28;20586;-46
2023/04/17 07:54:21;;;;;;;7.15;3.15;;;24.70;99.90;;;;;;4995050;28;20094;-46
2023/04/17 07:56:48;;;;;;;5.78;3.33;;;24.70;99.90;;;;;;4994744;28;20106;-46
2023/04/17 07:59:15;;;;;;;5.32;2.53;;;24.70;99.90;;;;;;4994288;28;20022;-46
2023/04/17 08:01:41;;;;;;;5.40;2.88;;;24.70;99.90;;;;;;4994203;28;20112;-46
2023/04/17 08:04:07;;;;;;;8.32;3.20;;;24.70;99.90;;;;;;4994452;28;20121;-46
2023/04/17 08:06:33;;;;;;;7.85;2.97;;;24.70;99.90;;;;;;4994752;28;20532;-46
2023/04/17 08:09:01;;;;;;;4.32;2.83;;;24.70;99.90;;;;;;4994325;28;20019;-46
2023/04/17 08:11:27;;;;;;;5.22;2.50;;;24.70;99.90;;;;;;4994714;28;20054;-46
2023/04/17 08:13:54;;;;;;;5.63;3.05;;;24.70;99.90;;;;;;4993371;28;20057;-46
2023/04/17 08:16:20;;;;;;;6.68;2.83;;;24.70;99.90;;;;;;4994453;28;20042;-46
2023/04/17 08:18:45;;;;;;;5.43;2.45;;;24.70;99.90;;;;;;4994063;28;20030;-45
2023/04/17 08:21:11;;;;;;;7.90;2.80;;;24.80;99.90;;;;;;4994321;28;20033;-46
2023/04/17 08:23:37;;;;;;;5.95;3.20;;;24.70;99.90;;;;;;4994278;28;20057;-46
2023/04/17 08:26:03;;;;;;;6.60;3.20;;;24.70;99.90;;;;;;4968035;28;20023;-46
2023/04/17 08:28:29;;;;;;;5.47;2.55;;;24.70;99.90;;;;;;4990319;28;20019;-46
2023/04/17 08:30:56;;;;;;;5.72;2.63;;;24.70;99.90;;;;;;4994400;28;20041;-46
2023/04/17 08:33:22;;;;;;;9.45;3.08;;;24.80;99.90;;;;;;4994148;28;20049;-46
2023/04/17 08:35:47;;;;;;;12.35;3.55;;;24.80;99.90;;;;;;4993978;28;20034;-45
2023/04/17 08:38:13;;;;;;;11.38;3.30;;;24.80;99.90;;;;;;4992205;28;20027;-46
2023/04/17 08:40:45;;;;;;;18.02;3.50;;;24.70;99.90;;;;;;4994043;28;20031;-46
2023/04/17 08:43:16;;;;;;;14.68;2.80;;;24.70;99.90;;;;;;4993766;28;20140;-46
2023/04/17 08:45:52;;;;;;;16.73;4.18;;;24.60;99.90;;;;;;4992635;28;20026;-46
2023/04/17 08:48:18;;;;;;;18.90;3.88;;;24.50;99.90;;;;;;4993861;28;20045;-46
2023/04/17 08:50:50;;;;;;;12.43;5.50;;;24.50;99.90;;;;;;4993675;28;20113;-46
2023/04/17 08:53:16;;;;;;;11.55;4.78;;;24.40;99.90;;;;;;4992532;28;20535;-45
2023/04/17 08:55:43;;;;;;;18.92;5.60;;;24.40;99.90;;;;;;4993270;28;20049;-44
2023/04/17 08:58:09;;;;;;;15.30;4.45;;;24.30;99.90;;;;;;4993738;28;20125;-45
2023/04/17 09:00:36;;;;;;;11.65;4.32;;;24.30;99.90;;;;;;4993077;28;20043;-44
2023/04/17 09:03:07;;;;;;;22.20;4.30;;;24.30;99.90;;;;;;4993532;28;20026;-44
2023/04/17 09:05:35;;;;;;;12.13;4.55;;;24.30;99.90;;;;;;4993507;28;20088;-44
2023/04/17 09:08:14;;;;;;;14.05;4.25;;;24.30;99.90;;;;;;4993306;28;20030;-44
2023/04/17 09:10:45;;;;;;;12.25;3.97;;;24.40;99.90;;;;;;4993230;28;20054;-44
2023/04/17 09:13:14;;;;;;;13.48;4.35;;;24.40;99.90;;;;;;4992745;28;20023;-44
2023/04/17 09:15:41;;;;;;;12.55;4.70;;;24.40;99.90;;;;;;4992999;28;20030;-45
2023/04/17 09:18:25;;;;;;;9.40;4.20;;;24.50;99.90;;;;;;4993117;28;20409;-45
2023/04/17 09:20:51;;;;;;;11.50;4.00;;;24.50;99.90;;;;;;4993234;28;20030;-45
2023/04/17 09:23:17;;;;;;;13.05;3.60;;;24.50;99.90;;;;;;4993175;28;20117;-45
2023/04/17 09:25:43;;;;;;;7.72;3.40;;;24.50;99.90;;;;;;5004956;28;20517;-46
2023/04/17 09:28:12;;;;;;;11.02;4.35;;;24.60;99.90;;;;;;4994352;28;20097;-45
2023/04/17 09:30:39;;;;;;;17.00;4.25;;;24.60;99.90;;;;;;4993196;28;20483;-45
2023/04/17 09:33:07;;;;;;;13.25;4.03;;;24.60;99.90;;;;;;4992946;28;20019;-45
2023/04/17 09:35:33;;;;;;;;;;;24.60;99.90;;;;;;4993325;28;20039;-45
2023/04/17 09:38:00;;;;;;;9.73;3.47;;;24.70;99.90;;;;;;4993285;28;19906;-45
2023/04/17 09:40:27;;;;;;;7.57;3.33;;;24.60;99.90;;;;;;4992800;28;20030;-45
2023/04/17 09:42:54;;;;;;;11.57;3.40;;;24.60;99.90;;;;;;4992844;28;20507;-44
2023/04/17 09:45:21;;;;;;;10.50;4.00;;;24.70;99.90;;;;;;4992635;28;20033;-45
2023/04/17 09:47:47;;;;;;;9.00;3.30;;;24.70;99.90;;;;;;4992709;28;20061;-45
2023/04/17 09:50:17;;;;;;;10.00;3.60;;;24.70;99.90;;;;;;4992786;28;20472;-44
2023/04/17 09:52:43;;;;;;;10.07;3.85;;;24.70;99.90;;;;;;4992652;28;20033;-45
2023/04/17 09:55:13;;;;;;;10.90;3.83;;;24.70;99.90;;;;;;5004777;28;20021;-44
2023/04/17 09:57:40;;;;;;;12.98;3.80;;;24.70;99.90;;;;;;4992805;28;20376;-46
2023/04/17 10:00:10;;;;;;;12.25;4.07;;;24.80;99.90;;;;;;4992523;28;20074;-45
2023/04/17 10:02:38;;;;;;;6.55;3.35;;;24.80;99.90;;;;;;4991088;28;20137;-45
2023/04/17 10:05:07;;;;;;;11.32;3.60;;;24.80;99.90;;;;;;4991492;28;20018;-44
2023/04/17 10:07:36;;;;;;;7.28;3.38;;;24.90;99.90;;;;;;4992438;28;20041;-45
2023/04/17 10:10:08;;;;;;;9.10;3.60;;;24.90;99.90;;;;;;4992775;28;20025;-45
2023/04/17 10:12:37;;;;;;;8.07;4.07;;;24.90;99.90;;;;;;4992519;28;20038;-45
2023/04/17 10:15:06;;;;;;;9.50;3.25;;;24.90;99.90;;;;;;4992405;28;20022;-44
2023/04/17 10:17:33;;;;;;;6.28;3.30;;;24.90;99.90;;;;;;4991285;28;20025;-45
2023/04/17 10:20:16;;;;;;;8.27;3.30;;;24.90;99.90;;;;;;4992771;28;20057;-45
2023/04/17 10:22:52;;;;;;;6.63;3.20;;;25.00;99.90;;;;;;4992200;28;20044;-45
2023/04/17 10:25:26;;;;;;;10.47;4.00;;;25.00;99.90;;;;;;4992261;28;20046;-45
2023/04/17 10:27:57;;;;;;;12.38;4.82;;;25.00;99.90;;;;;;4992281;28;20275;-45
2023/04/17 10:30:25;;;;;;;7.82;3.70;;;25.00;99.90;;;;;;4991315;28;20050;-45
2023/04/17 10:33:18;;;;;;;8.55;4.25;;;25.00;99.90;;;;;;4992222;28;20100;-45
2023/04/17 10:35:45;;;;;;;16.35;5.78;;;25.00;99.90;;;;;;4992214;28;20030;-46
2023/04/17 10:38:11;;;;;;;8.87;4.07;;;25.10;99.90;;;;;;4992330;28;20092;-46
2023/04/17 10:40:37;;;;;;;9.07;3.92;;;25.10;99.90;;;;;;4991061;28;20276;-45
2023/04/17 10:43:23;;;;;;;13.15;4.22;;;25.10;99.90;;;;;;4992295;28;20491;-45
2023/04/17 10:46:01;;;;;;;13.02;3.83;;;25.10;99.90;;;;;;4992134;28;20031;-45
2023/04/17 10:48:31;;;;;;;13.77;4.22;;;25.10;99.90;;;;;;4991964;28;20053;-45
2023/04/17 10:50:59;;;;;;;18.73;4.82;;;25.20;99.90;;;;;;4992204;28;20101;-45
2023/04/17 10:53:55;;;;;;;14.52;4.93;;;25.20;99.90;;;;;;4991962;28;20026;-45
2023/04/17 10:56:24;;;;;;;10.48;4.57;;;25.20;99.90;;;;;;4981187;28;20046;-45
2023/04/17 10:58:57;;;;;;;12.48;5.22;;;25.30;99.90;;;;;;4996049;28;20018;-44
2023/04/17 11:01:30;;;;;;;11.38;4.57;;;25.30;99.90;;;;;;4995806;28;20109;-45
2023/04/17 11:03:58;;;;;;;12.20;4.00;;;25.30;99.90;;;;;;4995695;28;20026;-44
2023/04/17 11:06:30;;;;;;;12.75;3.80;;;25.30;99.90;;;;;;4995742;28;20023;-45
2023/04/17 11:08:57;;;;;;;12.38;3.97;;;25.40;99.90;;;;;;4994320;28;20030;-44
2023/04/17 11:11:23;;;;;;;8.98;4.60;;;25.40;99.90;;;;;;4995529;28;20023;-44
2023/04/17 11:13:49;;;;;;;11.02;4.63;;;25.40;99.90;;;;;;4995407;28;20026;-44
2023/04/17 11:16:15;;;;;;;9.80;3.45;;;25.40;99.90;;;;;;4995597;28;20057;-44
2023/04/17 11:18:43;;;;;;;10.07;3.83;;;25.40;99.90;;;;;;4995405;28;20491;-44
2023/04/17 11:21:12;;;;;;;12.13;2.67;;;25.50;99.90;;;;;;4995352;28;20037;-44
2023/04/17 11:23:39;;;;;;;13.85;3.38;;;25.40;99.90;;;;;;4995350;28;20488;-45
2023/04/17 11:26:08;;;;;;;14.83;4.33;;;25.50;99.90;;;;;;4995435;28;20413;-45
2023/04/17 11:28:38;;;;;;;18.15;6.05;;;25.40;99.90;;;;;;4995215;28;20260;-45
2023/04/17 11:31:04;;;;;;;16.30;3.40;;;25.40;99.90;;;;;;4995413;28;20038;-44
2023/04/17 11:33:36;;;;;;;12.55;3.80;;;25.40;99.90;;;;;;4995208;28;20022;-47
2023/04/17 11:36:04;;;;;;;12.45;4.22;;;25.40;99.90;;;;;;4995063;28;20038;-45
2023/04/17 11:38:31;;;;;;;13.85;3.67;;;25.30;99.90;;;;;;4995194;28;20387;-45
2023/04/17 11:40:59;;;;;;;21.63;3.20;;;25.30;99.90;;;;;;4976952;28;20066;-44
2023/04/17 11:43:27;;;;;;;13.70;2.63;;;25.40;99.90;;;;;;4987435;28;20029;-44
2023/04/17 11:45:54;;;;;;;;;;;25.30;99.90;;;;;;4975200;28;20472;-44
2023/04/17 11:48:25;;;;;;;13.73;3.58;;;25.30;99.90;;;;;;4989453;28;20020;-44
2023/04/17 11:51:00;;;;;;;10.38;2.85;;;25.30;99.90;;;;;;4994977;28;20057;-44
2023/04/17 11:53:26;;;;;;;14.65;3.75;;;25.30;99.90;;;;;;4994689;28;20085;-44
2023/04/17 11:56:14;;;;;;;11.68;2.22;;;25.30;99.90;;;;;;4994430;28;20102;-44
2023/04/17 11:58:47;;;;;;;16.85;4.38;;;25.30;99.90;;;;;;4994698;28;20030;-44
2023/04/17 12:01:14;;;;;;;11.98;2.80;;;25.30;99.90;;;;;;4994581;28;20070;-44
2023/04/17 12:03:40;;;;;;;10.60;2.65;;;25.30;99.90;;;;;;4993303;28;20026;-43
2023/04/17 12:06:05;;;;;;;12.32;2.50;;;25.30;99.90;;;;;;4994303;28;20026;-44
2023/04/17 12:08:52;;;;;;;7.18;2.25;;;25.30;99.90;;;;;;4994587;28;20029;-46
2023/04/17 12:11:29;;;;;;;9.90;2.72;;;25.30;99.90;;;;;;4994568;28;20038;-44
2023/04/17 12:13:56;;;;;;;18.38;3.05;;;25.30;99.90;;;;;;4993076;28;20520;-44
2023/04/17 12:16:26;;;;;;;10.75;2.95;;;25.40;99.90;;;;;;4994334;28;20137;-43
2023/04/17 12:18:53;;;;;;;20.70;2.40;;;25.40;99.90;;;;;;4994189;28;20029;-44
2023/04/17 12:21:20;;;;;;;14.18;2.10;;;25.30;99.90;;;;;;4994407;28;20514;-43
2023/04/17 12:23:47;;;;;;;10.52;2.28;;;25.30;99.90;;;;;;4994168;28;20034;-43
2023/04/17 12:26:13;;;;;;;12.27;2.58;;;25.40;99.90;;;;;;4994438;28;20547;-43
2023/04/17 12:28:39;;;;;;;13.98;3.13;;;25.40;99.90;;;;;;4978451;28;20429;-44
2023/04/17 12:31:05;;;;;;;11.48;2.63;;;25.40;99.90;;;;;;4986658;28;20034;-43
2023/04/17 12:33:32;;;;;;;12.48;3.63;;;25.40;99.90;;;;;;4993809;28;20026;-44
2023/04/17 12:36:02;;;;;;;9.77;3.20;;;25.40;99.90;;;;;;4994059;28;20023;-44
2023/04/17 12:38:28;;;;;;;13.20;3.72;;;25.40;99.90;;;;;;4993918;28;20105;-44
2023/04/17 12:40:54;;;;;;;14.48;3.50;;;25.40;99.90;;;;;;4994001;28;20488;-44
2023/04/17 12:43:19;;;;;;;10.43;2.67;;;25.40;99.90;;;;;;4993947;28;20110;-44
2023/04/17 12:45:45;;;;;;;13.10;2.85;;;25.40;99.90;;;;;;4993894;28;20022;-44